Time;durP1;ratioP1;P1;durP2;ratioP2;P2;SDS_P1;SDS_P2;PMS_P1;PMS_P2;Temp;Humidity;BMP_temperature;BMP_pressure;BME280_temperature;BME280_humidity;BME280_pressure;Samples;Min_cycle;Max_cycle;Signal;HPM_P1;HPM_P2
2022/06/25 00:01:28;;;;;;;8.57;6.93;;;;;;;19.32;100.00;99778.83;1658311;85;20925;-56
2022/06/25 00:03:55;;;;;;;7.63;6.10;;;;;;;19.36;100.00;99775.16;1689861;84;21023;-64
2022/06/25 00:06:22;;;;;;;8.40;6.73;;;;;;;19.26;100.00;99776.38;1656252;86;21122;-63
2022/06/25 00:08:50;;;;;;;10.80;7.37;;;;;;;19.17;100.00;99783.45;1662865;85;21323;-57
2022/06/25 00:14:09;;;;;;;8.33;6.87;;;;;;;19.16;100.00;99787.13;1687184;84;21047;-58
2022/06/25 00:16:37;;;;;;;7.60;6.60;;;;;;;19.08;100.00;99780.19;1687719;84;21098;-59
2022/06/25 00:19:04;;;;;;;7.93;6.33;;;;;;;19.03;100.00;99784.90;1691510;83;21601;-56
2022/06/25 00:21:31;;;;;;;8.53;6.67;;;;;;;19.04;100.00;99790.45;1687710;84;21031;-57
2022/06/25 00:23:59;;;;;;;8.87;7.47;;;;;;;18.95;100.00;99790.64;1687154;84;21162;-57
2022/06/25 00:26:27;;;;;;;7.63;6.17;;;;;;;18.88;100.00;99794.00;1687466;84;21701;-58
2022/06/25 00:28:54;;;;;;;11.03;7.90;;;;;;;18.80;100.00;99794.45;1687942;84;21008;-56
2022/06/25 00:31:22;;;;;;;9.63;6.80;;;;;;;18.74;100.00;99794.11;1687811;84;21015;-56
2022/06/25 00:33:49;;;;;;;12.30;7.07;;;;;;;18.69;100.00;99796.94;1688111;84;21109;-63
2022/06/25 00:36:16;;;;;;;9.43;6.10;;;;;;;18.64;100.00;99799.53;1686900;84;22321;-57
2022/06/25 00:38:44;;;;;;;10.10;7.10;;;;;;;18.56;100.00;99799.97;1687989;84;21747;-56
2022/06/25 00:41:12;;;;;;;9.60;6.80;;;;;;;18.45;100.00;99795.62;1690011;83;21153;-57
2022/06/25 00:43:40;;;;;;;8.20;6.33;;;;;;;18.36;100.00;99797.07;1688278;83;20973;-56
2022/06/25 00:46:07;;;;;;;7.23;5.70;;;;;;;18.33;100.00;99803.63;1687775;84;21086;-63
2022/06/25 00:48:35;;;;;;;8.47;6.77;;;;;;;18.27;100.00;99803.83;1687845;84;21636;-57
2022/06/25 00:51:11;;;;;;;8.93;6.83;;;;;;;18.26;100.00;99804.84;1656562;85;21078;-57
2022/06/25 00:53:41;;;;;;;7.93;6.30;;;;;;;18.19;100.00;99800.56;1667364;85;21048;-57
2022/06/25 00:56:09;;;;;;;9.70;6.30;;;;;;;18.18;100.00;99802.11;1659609;85;21013;-65
2022/06/25 00:58:41;;;;;;;11.40;7.77;;;;;;;18.04;100.00;99799.57;1687889;84;21125;-58
2022/06/25 01:01:09;;;;;;;7.73;6.27;;;;;;;18.16;100.00;99805.00;1688528;84;21175;-58
2022/06/25 01:03:37;;;;;;;8.47;6.50;;;;;;;18.18;100.00;99803.44;1688445;84;21027;-57
2022/06/25 01:06:05;;;;;;;10.10;7.20;;;;;;;18.21;100.00;99807.70;1677771;84;21083;-63
2022/06/25 01:08:33;;;;;;;8.90;7.03;;;;;;;18.17;100.00;99813.19;1638869;86;21117;-58
2022/06/25 01:11:01;;;;;;;10.47;7.37;;;;;;;18.17;100.00;99809.23;1639547;86;21039;-59
2022/06/25 01:13:29;;;;;;;8.60;7.10;;;;;;;18.19;100.00;99819.03;1646003;86;21201;-58
2022/06/25 01:15:57;;;;;;;9.43;6.80;;;;;;;18.20;100.00;99815.34;1631376;86;21001;-60
2022/06/25 01:18:24;;;;;;;8.27;6.40;;;;;;;18.24;100.00;99815.66;1597998;87;21060;-63
2022/06/25 01:20:51;;;;;;;9.13;7.43;;;;;;;18.35;100.00;99819.23;1642784;86;21636;-58
2022/06/25 01:23:18;;;;;;;7.87;6.40;;;;;;;18.38;100.00;99825.34;1643875;86;21097;-59
2022/06/25 01:25:46;;;;;;;8.97;6.60;;;;;;;18.41;100.00;99815.59;1639024;86;22129;-58
2022/06/25 01:28:13;;;;;;;12.73;7.67;;;;;;;18.42;100.00;99811.41;1666421;84;21066;-59
2022/06/25 01:30:40;;;;;;;9.03;7.00;;;;;;;18.46;100.00;99810.40;1635894;86;21341;-64
2022/06/25 01:33:09;;;;;;;8.97;7.40;;;;;;;18.56;100.00;99814.98;1616788;87;21089;-58
2022/06/25 01:35:36;;;;;;;9.27;7.47;;;;;;;18.55;100.00;99819.47;1665842;84;20913;-58
2022/06/25 01:38:04;;;;;;;9.57;6.47;;;;;;;18.60;100.00;99814.77;1637539;86;21178;-60
2022/06/25 01:40:32;;;;;;;8.67;7.03;;;;;;;18.60;100.00;99816.91;1635294;87;21549;-58
2022/06/25 01:42:59;;;;;;;9.63;7.27;;;;;;;18.64;100.00;99819.33;1640852;86;21076;-59
2022/06/25 01:45:35;;;;;;;8.87;6.97;;;;;;;18.64;100.00;99822.50;1636633;86;21577;-58
2022/06/25 01:48:06;;;;;;;11.27;7.40;;;;;;;18.69;100.00;99827.83;1672019;84;20901;-65
2022/06/25 01:50:33;;;;;;;10.37;7.40;;;;;;;18.73;100.00;99838.73;1667795;84;21409;-60
2022/06/25 01:53:00;;;;;;;8.57;6.70;;;;;;;18.66;100.00;99834.39;1639778;86;21521;-58
2022/06/25 01:55:27;;;;;;;7.40;6.47;;;;;;;18.63;100.00;99828.27;1644790;86;21600;-59
2022/06/25 01:57:55;;;;;;;8.03;6.67;;;;;;;18.65;100.00;99830.69;1669739;84;20964;-58
2022/06/25 02:00:26;;;;;;;7.63;6.07;;;;;;;18.61;100.00;99834.34;1673257;84;21380;-58
2022/06/25 02:02:55;;;;;;;8.77;6.03;;;;;;;18.69;100.00;99840.50;1637439;86;21956;-58
2022/06/25 02:08:11;;;;;;;7.57;5.50;;;;;;;18.83;100.00;99845.45;1660239;86;21447;-58
2022/06/25 02:10:38;;;;;;;9.57;6.87;;;;;;;18.74;100.00;99854.84;1659357;86;21685;-58
2022/06/25 02:13:06;;;;;;;8.43;7.10;;;;;;;18.71;100.00;99860.90;1659401;86;21052;-59
2022/06/25 02:15:35;;;;;;;6.40;5.43;;;;;;;18.72;100.00;99865.66;1634767;86;21880;-57
2022/06/25 02:18:03;;;;;;;8.13;6.13;;;;;;;18.74;100.00;99866.72;1696770;83;21871;-62
2022/06/25 02:20:30;;;;;;;9.23;6.53;;;;;;;18.76;100.00;99862.80;1693184;84;21118;-58
2022/06/25 02:22:58;;;;;;;7.60;5.37;;;;;;;18.77;100.00;99866.23;1704573;83;21053;-58
2022/06/25 02:25:25;;;;;;;6.83;5.20;;;;;;;18.81;100.00;99870.77;1692935;84;20975;-58
2022/06/25 02:27:53;;;;;;;6.60;5.40;;;;;;;18.76;100.00;99869.92;1678938;85;21160;-59
2022/06/25 02:30:20;;;;;;;9.90;5.87;;;;;;;18.75;100.00;99872.27;1692766;84;21160;-58
2022/06/25 02:32:48;;;;;;;9.30;5.30;;;;;;;18.75;100.00;99876.22;1678837;85;21007;-58
2022/06/25 02:35:15;;;;;;;9.07;6.00;;;;;;;18.74;100.00;99875.95;1692711;84;21510;-58
2022/06/25 02:37:43;;;;;;;7.70;5.83;;;;;;;18.76;100.00;99881.80;1664571;85;21103;-58
2022/06/25 02:40:12;;;;;;;8.13;5.47;;;;;;;18.73;100.00;99881.77;1693532;84;22292;-61
2022/06/25 02:42:40;;;;;;;7.67;5.17;;;;;;;18.75;100.00;99886.27;1659992;84;20941;-58
2022/06/25 02:45:09;;;;;;;10.87;5.87;;;;;;;18.73;100.00;99891.53;1692925;84;21525;-58
2022/06/25 02:47:37;;;;;;;8.63;6.50;;;;;;;18.77;100.00;99893.43;1678662;85;21082;-58
2022/06/25 02:50:07;;;;;;;9.30;6.27;;;;;;;18.70;100.00;99898.88;1678240;85;21467;-58
2022/06/25 02:52:35;;;;;;;8.83;6.40;;;;;;;18.76;100.00;99902.41;1693179;84;21244;-65
2022/06/25 02:55:02;;;;;;;9.53;6.27;;;;;;;18.71;100.00;99896.55;1665730;85;21453;-63
2022/06/25 03:00:17;;;;;;;10.07;7.00;;;;;;;18.75;100.00;99899.98;1664627;84;21159;-58
2022/06/25 03:02:45;;;;;;;7.73;5.80;;;;;;;18.67;100.00;99901.19;1678615;85;21055;-64
2022/06/25 03:05:12;;;;;;;11.60;6.97;;;;;;;18.68;100.00;99908.87;1659505;85;22268;-58
2022/06/25 03:07:40;;;;;;;9.03;6.80;;;;;;;18.65;100.00;99906.72;1663265;85;21800;-58
2022/06/25 03:10:08;;;;;;;10.30;6.43;;;;;;;18.66;100.00;99904.88;1690894;84;21000;-64
2022/06/25 03:12:36;;;;;;;9.10;6.77;;;;;;;18.74;100.00;99909.76;1670789;85;21029;-57
2022/06/25 03:15:06;;;;;;;9.67;7.23;;;;;;;18.81;100.00;99913.02;1667812;85;21059;-58
2022/06/25 03:17:33;;;;;;;10.33;7.93;;;;;;;18.86;100.00;99917.55;1661541;85;21255;-57
2022/06/25 03:20:18;;;;;;;13.23;8.33;;;;;;;18.85;100.00;99921.25;1691031;84;21006;-57
2022/06/25 03:22:47;;;;;;;12.33;9.23;;;;;;;18.87;100.00;99913.89;1676005;85;21099;-58
2022/06/25 03:25:14;;;;;;;10.70;7.67;;;;;;;18.89;100.00;99912.58;1676469;85;21509;-58
2022/06/25 03:27:42;;;;;;;10.57;8.00;;;;;;;18.96;100.00;99914.52;1676956;85;21044;-57
2022/06/25 03:30:11;;;;;;;12.70;8.10;;;;;;;19.00;100.00;99915.35;1675332;84;21561;-59
2022/06/25 03:32:40;;;;;;;11.97;8.83;;;;;;;19.06;100.00;99920.98;1675752;85;21628;-65
2022/06/25 03:35:15;;;;;;;14.20;9.37;;;;;;;19.07;100.00;99921.25;1665450;85;21944;-56
2022/06/25 03:37:44;;;;;;;11.97;8.50;;;;;;;19.17;100.00;99929.30;1674750;85;21075;-58
2022/06/25 03:40:12;;;;;;;12.77;9.33;;;;;;;19.20;100.00;99930.89;1675733;85;21354;-56
2022/06/25 03:42:39;;;;;;;13.03;9.87;;;;;;;19.20;100.00;99925.61;1657407;86;21576;-60
2022/06/25 03:45:09;;;;;;;10.87;7.83;;;;;;;19.23;100.00;99926.17;1691240;84;21042;-56
2022/06/25 03:47:36;;;;;;;11.70;8.67;;;;;;;19.28;100.00;99932.83;1691545;84;21073;-56
2022/06/25 03:50:05;;;;;;;10.63;8.10;;;;;;;19.16;100.00;99936.41;1690225;84;21129;-58
2022/06/25 03:52:32;;;;;;;10.40;7.10;;;;;;;19.10;100.00;99933.45;1657594;86;21051;-59
2022/06/25 03:54:59;;;;;;;10.10;8.20;;;;;;;19.13;100.00;99926.84;1691049;84;21551;-58
2022/06/25 03:57:26;;;;;;;9.93;7.73;;;;;;;19.14;100.00;99932.43;1657006;85;20997;-56
2022/06/25 03:59:55;;;;;;;12.50;8.90;;;;;;;19.19;100.00;99933.27;1689042;83;21035;-58
2022/06/25 04:02:26;;;;;;;9.77;7.60;;;;;;;19.16;100.00;99931.12;1680321;84;21012;-59
2022/06/25 04:05:08;;;;;;;10.75;8.10;;;;;;;19.27;100.00;99941.81;1613379;85;21708;-56
2022/06/25 04:07:36;;;;;;;9.50;7.03;;;;;;;19.37;100.00;99945.89;1664064;85;21260;-56
2022/06/25 04:10:06;;;;;;;9.83;6.53;;;;;;;19.35;100.00;99942.69;1690625;84;21134;-62
2022/06/25 04:12:34;;;;;;;9.17;6.20;;;;;;;19.27;100.00;99940.48;1682000;84;21003;-57
2022/06/25 04:15:02;;;;;;;8.60;6.30;;;;;;;19.31;100.00;99946.88;1691539;84;21062;-58
2022/06/25 04:17:30;;;;;;;7.60;5.57;;;;;;;19.37;100.00;99947.22;1691500;83;21517;-58
2022/06/25 04:19:58;;;;;;;8.80;6.33;;;;;;;19.30;100.00;99947.92;1690064;84;21933;-57
2022/06/25 04:22:25;;;;;;;7.57;6.63;;;;;;;19.37;100.00;99951.97;1690202;84;21480;-62
2022/06/25 04:24:53;;;;;;;9.07;6.03;;;;;;;19.38;100.00;99954.09;1690622;84;21146;-57
2022/06/25 04:30:07;;;;;;;7.87;5.30;;;;;;;19.61;100.00;99951.14;1660174;85;21321;-64
2022/06/25 04:32:36;;;;;;;7.73;5.13;;;;;;;19.60;100.00;99950.88;1691381;83;21141;-56
2022/06/25 04:35:09;;;;;;;8.57;5.87;;;;;;;19.59;100.00;99949.82;1690208;84;21004;-56
2022/06/25 04:37:39;;;;;;;6.47;5.43;;;;;;;19.60;100.00;99949.55;1690522;84;20990;-57
2022/06/25 04:40:07;;;;;;;7.67;5.57;;;;;;;19.52;100.00;99953.98;1676530;84;21072;-63
2022/06/25 04:42:34;;;;;;;6.93;5.57;;;;;;;19.42;100.00;99961.27;1658093;85;21462;-56
2022/06/25 04:45:01;;;;;;;7.57;6.20;;;;;;;19.40;100.00;99964.70;1662480;85;21264;-57
2022/06/25 04:47:29;;;;;;;6.30;5.17;;;;;;;19.45;100.00;99968.70;1691151;84;21568;-62
2022/06/25 04:49:58;;;;;;;6.87;5.30;;;;;;;19.53;100.00;99976.72;1669002;85;21087;-57
2022/06/25 04:52:26;;;;;;;8.67;5.40;;;;;;;19.61;100.00;99973.62;1628163;85;21517;-62
2022/06/25 04:54:53;;;;;;;7.60;5.10;;;;;;;19.70;100.00;99972.70;1662623;85;21091;-57
2022/06/25 04:57:22;;;;;;;6.97;4.67;;;;;;;19.69;100.00;99978.48;1690506;84;21178;-58
2022/06/25 05:00:11;;;;;;;6.63;4.97;;;;;;;19.74;100.00;99976.97;1661294;85;20986;-62
2022/06/25 05:02:39;;;;;;;5.80;4.60;;;;;;;19.84;100.00;99978.36;1691359;84;21496;-56
2022/06/25 05:05:08;;;;;;;9.17;5.40;;;;;;;19.85;100.00;99977.30;1675430;84;21099;-62
2022/06/25 05:07:38;;;;;;;6.80;4.70;;;;;;;19.98;100.00;99973.47;1676248;84;21715;-56
2022/06/25 05:10:06;;;;;;;5.73;4.93;;;;;;;20.05;100.00;99977.50;1660436;85;21272;-58
2022/06/25 05:15:19;;;;;;;6.70;5.43;;;;;;;20.19;100.00;99983.15;1658636;85;21832;-56
2022/06/25 05:17:48;;;;;;;7.27;4.63;;;;;;;20.23;100.00;99978.15;1660421;83;21636;-60
2022/06/25 05:20:17;;;;;;;6.70;4.63;;;;;;;20.27;100.00;99987.20;1691331;84;21830;-56
2022/06/25 05:22:44;;;;;;;7.27;5.60;;;;;;;20.36;100.00;99989.64;1656892;86;21166;-59
2022/06/25 05:25:11;;;;;;;5.80;4.83;;;;;;;20.49;100.00;99988.39;1691374;84;20981;-56
2022/06/25 05:27:39;;;;;;;7.03;4.90;;;;;;;20.48;100.00;99987.60;1660851;85;21111;-64
2022/06/25 05:30:08;;;;;;;6.47;4.30;;;;;;;20.53;100.00;99984.22;1691146;84;22119;-56
2022/06/25 05:32:35;;;;;;;5.93;4.60;;;;;;;20.58;100.00;99985.06;1660055;85;21056;-56
2022/06/25 05:35:04;;;;;;;6.97;4.70;;;;;;;20.59;100.00;99985.33;1690559;84;22199;-57
2022/06/25 05:37:31;;;;;;;8.23;5.30;;;;;;;20.67;100.00;99988.55;1690913;84;21479;-56
2022/06/25 05:39:58;;;;;;;5.87;4.80;;;;;;;20.72;100.00;99989.39;1689653;83;21032;-56
2022/06/25 05:42:26;;;;;;;7.17;4.67;;;;;;;20.82;100.00;99985.45;1690546;84;21098;-56
2022/06/25 05:44:53;;;;;;;7.03;5.07;;;;;;;20.84;100.00;99983.36;1657941;86;21035;-56
2022/06/25 05:47:20;;;;;;;5.67;4.60;;;;;;;20.88;100.00;99987.61;1690587;84;21070;-56
2022/06/25 05:49:48;;;;;;;5.10;4.30;;;;;;;20.94;100.00;99991.87;1658187;85;21146;-55
2022/06/25 05:52:17;;;;;;;5.83;4.57;;;;;;;20.94;100.00;99992.40;1658088;85;21020;-55
2022/06/25 05:54:44;;;;;;;6.57;5.13;;;;;;;20.96;100.00;99990.30;1691459;84;21263;-55
2022/06/25 05:57:11;;;;;;;5.10;4.40;;;;;;;20.90;100.00;99994.77;1660538;85;20945;-57
2022/06/25 05:59:39;;;;;;;6.13;4.67;;;;;;;20.83;100.00;99987.57;1690120;84;21311;-63
2022/06/25 06:02:06;;;;;;;5.97;4.97;;;;;;;20.83;100.00;99984.92;1659685;85;21049;-55
2022/06/25 06:04:34;;;;;;;5.07;4.07;;;;;;;20.81;100.00;99992.34;1690173;84;21141;-58
2022/06/25 06:07:02;;;;;;;7.10;3.63;;;;;;;20.96;100.00;99993.75;1671817;85;21575;-63
2022/06/25 06:09:31;;;;;;;5.23;3.90;;;;;;;21.14;100.00;99994.63;1670141;85;21418;-55
2022/06/25 06:11:59;;;;;;;6.30;4.90;;;;;;;21.28;100.00;99990.16;1669467;84;21261;-56
2022/06/25 06:14:26;;;;;;;5.10;3.90;;;;;;;21.50;100.00;99990.78;1637913;87;21367;-56
2022/06/25 06:16:53;;;;;;;5.60;4.03;;;;;;;21.61;100.00;99987.09;1671193;85;20991;-56
2022/06/25 06:19:21;;;;;;;4.87;4.10;;;;;;;21.71;100.00;99994.83;1668100;85;20984;-57
2022/06/25 06:21:48;;;;;;;6.17;4.33;;;;;;;21.85;100.00;99994.02;1668820;84;21568;-61
2022/06/25 06:24:15;;;;;;;5.87;4.10;;;;;;;21.99;100.00;99997.50;1637480;87;21866;-56
2022/06/25 06:26:42;;;;;;;6.93;4.57;;;;;;;22.00;100.00;99995.09;1669748;85;20952;-56
2022/06/25 06:29:10;;;;;;;5.30;4.27;;;;;;;22.15;100.00;99993.02;1672264;85;21166;-57
2022/06/25 06:31:37;;;;;;;4.60;4.10;;;;;;;22.31;100.00;99995.91;1668555;85;21366;-63
2022/06/25 06:34:05;;;;;;;5.10;4.00;;;;;;;22.58;100.00;99994.31;1643588;86;21094;-56
2022/06/25 06:36:32;;;;;;;5.47;3.77;;;;;;;22.67;100.00;99998.53;1668805;85;21260;-55
2022/06/25 06:38:59;;;;;;;4.93;4.40;;;;;;;22.76;100.00;100003.55;1670465;85;21078;-57
2022/06/25 06:41:27;;;;;;;4.80;3.80;;;;;;;22.90;100.00;99999.27;1669470;84;21019;-63
2022/06/25 06:43:55;;;;;;;5.57;4.60;;;;;;;23.06;100.00;100005.34;1637861;87;21079;-55
2022/06/25 06:46:22;;;;;;;5.17;3.90;;;;;;;23.11;100.00;100004.53;1670096;85;20991;-55
2022/06/25 06:48:49;;;;;;;5.53;4.57;;;;;;;22.96;100.00;100001.42;1666928;85;21240;-55
2022/06/25 06:51:16;;;;;;;5.43;4.40;;;;;;;22.91;100.00;100002.20;1666920;86;21019;-57
2022/06/25 06:53:43;;;;;;;5.70;4.37;;;;;;;23.02;100.00;100003.77;1666826;85;21009;-55
2022/06/25 06:56:10;;;;;;;4.60;4.07;;;;;;;23.38;100.00;100006.29;1666786;86;21103;-57
2022/06/25 06:58:38;;;;;;;4.40;3.67;;;;;;;23.78;100.00;100010.59;1670232;84;21161;-56
2022/06/25 07:01:05;;;;;;;5.47;4.10;;;;;;;23.98;100.00;100005.67;1671974;84;21187;-56
2022/06/25 07:03:33;;;;;;;5.37;4.57;;;;;;;24.05;100.00;100010.66;1638046;87;21094;-59
2022/06/25 07:06:01;;;;;;;5.30;4.73;;;;;;;23.88;100.00;100007.07;1665399;85;21562;-57
2022/06/25 07:08:28;;;;;;;6.97;4.20;;;;;;;23.77;100.00;100009.55;1661112;85;20985;-56
2022/06/25 07:10:56;;;;;;;4.97;4.07;;;;;;;23.90;100.00;100004.91;1655211;85;21403;-56
2022/06/25 07:13:23;;;;;;;5.70;4.40;;;;;;;24.04;100.00;100008.54;1692707;84;21226;-57
2022/06/25 07:15:50;;;;;;;5.47;4.20;;;;;;;24.14;100.00;100001.56;1665448;85;20966;-57
2022/06/25 07:18:19;;;;;;;5.23;4.47;;;;;;;24.28;100.00;100003.30;1650308;84;21829;-57
2022/06/25 07:20:46;;;;;;;4.63;4.07;;;;;;;24.25;100.00;100008.39;1692256;84;21110;-57
2022/06/25 07:23:13;;;;;;;5.97;4.63;;;;;;;24.13;100.00;100007.94;1692947;84;21557;-56
2022/06/25 07:25:40;;;;;;;5.20;3.97;;;;;;;24.09;100.00;100013.02;1659578;85;21255;-59
2022/06/25 07:28:08;;;;;;;4.97;4.40;;;;;;;24.07;100.00;100013.06;1656093;84;21012;-55
2022/06/25 07:30:36;;;;;;;5.93;4.60;;;;;;;24.10;100.00;100001.86;1692421;84;21082;-55
2022/06/25 07:33:04;;;;;;;4.80;4.20;;;;;;;24.27;100.00;100004.35;1697840;83;20953;-56
2022/06/25 07:35:31;;;;;;;5.53;4.40;;;;;;;24.50;100.00;100009.50;1658015;86;21478;-56
2022/06/25 07:37:59;;;;;;;6.43;5.13;;;;;;;24.66;100.00;100010.67;1693943;83;21790;-59
2022/06/25 07:40:26;;;;;;;4.93;4.00;;;;;;;24.92;100.00;100007.98;1692247;84;22041;-56
2022/06/25 07:42:54;;;;;;;5.07;4.57;;;;;;;25.13;100.00;100005.92;1663253;85;21004;-56
2022/06/25 07:45:21;;;;;;;5.70;5.10;;;;;;;25.39;100.00;100012.27;1654995;85;21078;-60
2022/06/25 07:47:48;;;;;;;6.22;5.17;;;;;;;25.73;100.00;100007.52;1691843;84;21431;-61
2022/06/25 07:53:01;;;;;;;5.87;5.28;;;;;;;26.12;100.00;99988.23;1692083;84;21051;-59
2022/06/25 07:55:28;;;;;;;5.87;5.17;;;;;;;26.38;100.00;99989.38;1664568;85;21143;-56
2022/06/25 07:57:56;;;;;;;6.95;5.37;;;;;;;26.60;100.00;99988.75;1691588;84;21114;-57
2022/06/25 08:00:23;;;;;;;6.62;5.85;;;;;;;26.67;100.00;99981.14;1663488;85;21127;-56
2022/06/25 08:02:50;;;;;;;6.58;5.85;;;;;;;26.83;100.00;99984.84;1692520;84;21595;-58
2022/06/25 08:05:17;;;;;;;8.00;5.78;;;;;;;27.10;100.00;99986.16;1664017;85;21575;-57
2022/06/25 08:07:46;;;;;;;6.60;6.00;;;;;;;27.07;100.00;99993.98;1658707;84;21053;-58
2022/06/25 08:10:13;;;;;;;7.47;6.33;;;;;;;26.99;100.00;99995.48;1692270;84;21059;-57
2022/06/25 08:12:40;;;;;;;6.12;5.53;;;;;;;27.04;100.00;99997.25;1692064;84;21093;-57
2022/06/25 08:15:10;;;;;;;10.75;5.65;;;;;;;27.24;100.00;100008.09;1691474;84;21280;-57
2022/06/25 08:17:38;;;;;;;4.45;4.03;;;;;;;27.10;100.00;100000.08;1663536;85;20960;-57
2022/06/25 08:20:06;;;;;;;6.65;4.25;;;;;;;27.06;100.00;99999.09;1691865;84;21098;-60
2022/06/25 08:22:33;;;;;;;4.87;4.00;;;;;;;27.21;100.00;99994.80;1692169;84;21523;-56
2022/06/25 08:25:00;;;;;;;4.40;3.70;;;;;;;27.46;100.00;100003.34;1691437;84;21098;-56
2022/06/25 08:27:28;;;;;;;5.62;4.20;;;;;;;27.45;100.00;100003.11;1664574;85;22267;-56
2022/06/25 08:29:55;;;;;;;4.08;3.67;;;;;;;27.62;100.00;100001.38;1655810;84;21054;-57
2022/06/25 08:32:22;;;;;;;4.37;3.33;;;;;;;27.96;100.00;100004.62;1695333;83;21089;-56
2022/06/25 08:34:49;;;;;;;4.70;3.37;;;;;;;28.08;100.00;99995.51;1658894;86;21072;-64
2022/06/25 08:37:16;;;;;;;4.12;3.22;;;;;;;27.95;100.00;99997.70;1691873;84;21098;-56
2022/06/25 08:39:44;;;;;;;4.28;3.70;;;;;;;28.02;100.00;99984.66;1662938;85;21163;-57
2022/06/25 08:42:12;;;;;;;5.03;3.12;;;;;;;28.31;100.00;99986.88;1652532;85;21145;-58
2022/06/25 08:44:39;;;;;;;4.33;3.37;;;;;;;28.60;100.00;99988.55;1691710;84;21094;-56
2022/06/25 08:47:06;;;;;;;5.62;3.60;;;;;;;28.96;100.00;99988.88;1662421;85;21076;-56
2022/06/25 08:49:34;;;;;;;4.45;3.40;;;;;;;29.10;100.00;99994.16;1692460;84;21264;-56
2022/06/25 08:52:02;;;;;;;5.70;4.12;;;;;;;29.23;100.00;99997.25;1691792;84;21266;-57
2022/06/25 08:54:29;;;;;;;3.92;3.20;;;;;;;29.44;100.00;99992.63;1664415;85;21576;-56
2022/06/25 08:56:56;;;;;;;6.00;2.55;;;;;;;29.45;99.87;99994.98;1692365;84;21568;-63
2022/06/25 08:59:23;;;;;;;4.10;3.20;;;;;;;29.48;100.00;99999.73;1691849;84;21087;-58
2022/06/25 09:01:50;;;;;;;3.95;2.95;;;;;;;29.63;100.00;99999.84;1694508;83;21537;-57
2022/06/25 09:04:17;;;;;;;4.10;3.35;;;;;;;29.78;100.00;99995.33;1692506;83;21153;-56
2022/06/25 09:06:44;;;;;;;4.25;3.80;;;;;;;30.12;96.94;99993.69;1664699;85;21036;-58
2022/06/25 09:09:16;;;;;;;3.62;3.30;;;;;;;30.26;92.30;99990.25;1662128;85;20989;-57
2022/06/25 09:11:56;;;;;;;3.52;2.90;;;;;;;30.29;87.87;99984.80;1696681;83;21521;-64
2022/06/25 09:14:28;;;;;;;3.80;3.12;;;;;;;30.37;88.97;99984.53;1673990;84;21492;-58
2022/06/25 09:17:08;;;;;;;3.87;3.12;;;;;;;30.56;86.26;99983.58;1686856;84;21265;-60
2022/06/25 09:19:40;;;;;;;3.77;3.00;;;;;;;30.51;80.10;99979.17;1652518;84;21524;-64
2022/06/25 09:22:12;;;;;;;5.83;3.05;;;;;;;30.28;83.36;99977.29;1663690;85;21402;-57
2022/06/25 09:24:57;;;;;;;4.12;3.10;;;;;;;30.12;79.72;99973.52;1661603;85;20948;-63
2022/06/25 09:27:35;;;;;;;7.03;3.45;;;;;;;29.76;81.93;99976.03;1682345;83;21022;-64
2022/06/25 09:30:15;;;;;;;4.62;3.30;;;;;;;29.57;85.88;99983.60;1688122;84;21288;-65
2022/06/25 09:32:51;;;;;;;3.75;3.10;;;;;;;29.46;90.71;99976.41;1687423;84;21556;-58
2022/06/25 09:35:39;;;;;;;3.30;2.98;;;;;;;29.58;88.88;99971.77;1657477;84;21416;-58
2022/06/25 09:38:12;;;;;;;4.10;3.10;;;;;;;29.52;88.65;99970.34;1662315;85;21051;-57
2022/06/25 09:40:57;;;;;;;4.22;2.83;;;;;;;29.59;95.83;99968.00;1687535;84;21098;-58
2022/06/25 09:43:26;;;;;;;3.47;2.85;;;;;;;29.94;94.75;99963.36;1681799;83;21305;-60
2022/06/25 09:45:56;;;;;;;4.20;3.37;;;;;;;30.06;84.29;99963.48;1686602;83;21094;-58
2022/06/25 09:48:28;;;;;;;5.30;3.27;;;;;;;29.94;78.82;99974.11;1683691;84;21496;-57
2022/06/25 09:51:23;;;;;;;3.92;2.95;;;;;;;29.83;81.43;99974.77;1656507;85;21522;-58
2022/06/25 09:53:51;;;;;;;5.10;3.20;;;;;;;29.77;79.98;99972.78;1658248;86;21174;-57
2022/06/25 09:56:25;;;;;;;3.95;2.55;;;;;;;29.83;82.31;99972.08;1687939;84;21891;-57
2022/06/25 09:58:57;;;;;;;4.97;3.10;;;;;;;29.93;77.99;99965.83;1686998;83;20952;-63
2022/06/25 10:01:27;;;;;;;4.67;2.83;;;;;;;30.00;73.17;99960.75;1686689;83;20990;-57
2022/06/25 10:03:55;;;;;;;4.05;2.83;;;;;;;30.20;74.42;99963.33;1687707;83;21027;-57
2022/06/25 10:06:23;;;;;;;3.70;2.75;;;;;;;30.45;69.96;99945.49;1663594;84;21130;-58
2022/06/25 10:08:55;;;;;;;5.22;2.60;;;;;;;30.67;69.19;99948.47;1692895;84;21239;-57
2022/06/25 10:11:26;;;;;;;3.58;2.42;;;;;;;31.01;65.35;99943.46;1693613;84;21372;-57
2022/06/25 10:13:53;;;;;;;2.83;2.17;;;;;;;31.49;58.54;99937.34;1679161;83;21040;-57
2022/06/25 10:16:23;;;;;;;4.17;2.37;;;;;;;31.84;53.09;99941.83;1692590;84;21505;-57
2022/06/25 10:18:50;;;;;;;3.60;2.40;;;;;;;31.98;53.26;99934.25;1678262;85;21082;-63
2022/06/25 10:21:18;;;;;;;4.72;2.37;;;;;;;31.70;49.73;99931.33;1693229;84;22234;-58
2022/06/25 10:23:46;;;;;;;3.70;2.70;;;;;;;31.62;49.64;99933.56;1679094;85;21514;-58
2022/06/25 10:26:13;;;;;;;3.72;2.30;;;;;;;31.87;48.01;99933.11;1693789;84;21567;-57
2022/06/25 10:28:41;;;;;;;3.35;1.98;;;;;;;31.82;47.57;99934.63;1676195;85;21018;-65
2022/06/25 10:31:15;;;;;;;11.03;2.95;;;;;;;31.99;48.01;99935.04;1678235;85;21090;-59
2022/06/25 10:33:58;;;;;;;3.67;2.60;;;;;;;32.21;47.95;99927.88;1638271;86;21428;-56
2022/06/25 10:36:46;;;;;;;3.50;2.22;;;;;;;32.72;47.32;99924.84;1682100;84;21521;-56
2022/06/25 10:39:33;;;;;;;2.85;2.12;;;;;;;33.12;45.29;99923.55;1660095;86;21019;-57
2022/06/25 10:45:08;;;;;;;2.62;1.70;;;;;;;32.93;42.14;99917.95;1690747;84;21085;-64
2022/06/25 10:47:56;;;;;;;2.62;1.70;;;;;;;32.54;40.20;99910.02;1692842;84;21412;-57
2022/06/25 10:50:29;;;;;;;2.70;2.00;;;;;;;32.32;42.09;99902.59;1661019;85;21572;-57
2022/06/25 10:53:10;;;;;;;2.83;1.70;;;;;;;32.56;41.58;99908.56;1694212;84;21081;-63
2022/06/25 10:55:54;;;;;;;2.52;1.70;;;;;;;32.65;40.68;99910.56;1679498;85;21166;-56
2022/06/25 10:58:23;;;;;;;3.80;1.77;;;;;;;32.59;39.79;99906.54;1693367;84;21019;-57
2022/06/25 11:00:54;;;;;;;3.00;1.50;;;;;;;32.57;39.51;99906.64;1678223;85;21247;-58
2022/06/25 11:03:38;;;;;;;2.85;1.60;;;;;;;32.82;39.12;99906.05;1660095;85;21043;-59
2022/06/25 11:06:29;;;;;;;2.40;1.52;;;;;;;33.04;37.78;99898.83;1704067;83;20991;-58
2022/06/25 11:09:10;;;;;;;3.92;1.52;;;;;;;33.49;37.37;99902.36;1665606;85;21586;-58
2022/06/25 11:11:38;;;;;;;3.52;1.72;;;;;;;33.73;37.12;99902.25;1664169;85;20957;-56
2022/06/25 11:14:20;;;;;;;3.95;2.00;;;;;;;33.90;36.33;99895.70;1638765;86;21935;-59
2022/06/25 11:16:48;;;;;;;2.37;1.60;;;;;;;34.29;36.77;99894.55;1642477;85;21510;-57
2022/06/25 11:19:15;;;;;;;3.37;1.67;;;;;;;34.76;34.72;99895.03;1669372;84;21628;-56
2022/06/25 11:21:43;;;;;;;5.05;1.85;;;;;;;34.65;34.53;99887.25;1640740;86;21482;-59
2022/06/25 11:24:26;;;;;;;4.20;1.82;;;;;;;34.87;34.69;99889.27;1636955;86;21435;-59
2022/06/25 11:29:52;;;;;;;4.00;1.52;;;;;;;34.74;33.71;99894.58;1602810;87;21217;-56
2022/06/25 11:32:23;;;;;;;2.00;1.30;;;;;;;34.97;34.34;99884.64;1607632;87;21138;-59
2022/06/25 11:35:00;;;;;;;2.55;1.55;;;;;;;35.37;32.74;99893.55;1662034;85;21009;-58
2022/06/25 11:37:29;;;;;;;2.92;1.50;;;;;;;35.22;33.11;99886.50;1632736;86;21150;-57
2022/06/25 11:39:56;;;;;;;4.15;1.90;;;;;;;35.48;33.22;99887.17;1647408;86;21242;-58
2022/06/25 11:42:23;;;;;;;2.37;1.40;;;;;;;35.91;33.03;99888.50;1635530;86;21058;-57
2022/06/25 11:44:52;;;;;;;2.22;1.45;;;;;;;36.02;32.40;99883.48;1639602;86;21637;-58
2022/06/25 11:47:26;;;;;;;2.00;1.42;;;;;;;36.08;32.13;99876.41;1640169;86;21146;-63
2022/06/25 11:49:53;;;;;;;2.70;1.60;;;;;;;36.30;31.56;99885.08;1645408;86;21158;-57
2022/06/25 11:52:23;;;;;;;2.42;1.40;;;;;;;36.52;30.71;99879.39;1640405;86;21257;-57
2022/06/25 11:54:51;;;;;;;4.45;3.83;;;;;;;36.36;30.86;99872.75;1635026;86;21093;-64
2022/06/25 11:57:27;;;;;;;3.70;1.70;;;;;;;36.11;31.61;99881.89;1640206;85;21405;-58